createdAt,value
2023-03-23T00:00:33.288Z,1.23
2023-03-23T00:04:34.959Z,1.25
2023-03-23T00:08:46.010Z,0.98
2023-03-23T00:12:50.856Z,1.10
2023-03-23T00:16:52.637Z,1.10
2023-03-23T00:20:57.892Z,0.80
2023-03-23T00:24:59.512Z,1.10
2023-03-23T00:29:04.869Z,0.90
2023-03-23T00:33:06.555Z,1.10
2023-03-23T00:37:08.893Z,1.10
2023-03-23T00:41:12.550Z,0.82
2023-03-23T00:45:14.899Z,0.85
2023-03-23T00:49:19.957Z,0.93
2023-03-23T00:53:22.060Z,0.90
2023-03-23T00:57:25.296Z,1.00
2023-03-23T01:01:27.035Z,1.23
2023-03-23T01:05:33.164Z,1.10
2023-03-23T01:09:36.060Z,1.23
2023-03-23T01:13:39.297Z,1.17
2023-03-23T01:17:41.740Z,1.17
2023-03-23T01:21:43.618Z,1.30
2023-03-23T01:25:46.394Z,1.43
2023-03-23T01:29:48.072Z,1.27
2023-03-23T01:33:53.211Z,1.30
2023-03-23T01:37:56.376Z,1.00
2023-03-23T01:41:58.695Z,1.50
2023-03-23T01:46:01.046Z,1.02
2023-03-23T01:50:02.845Z,1.43
2023-03-23T01:54:09.546Z,1.20
2023-03-23T01:58:13.589Z,1.23
2023-03-23T02:02:17.213Z,1.25
2023-03-23T02:06:21.389Z,1.20
2023-03-23T02:10:42.076Z,1.20
2023-03-23T02:14:53.804Z,1.25
2023-03-23T02:18:59.107Z,0.80
2023-03-23T02:23:13.163Z,1.40
2023-03-23T02:27:44.135Z,1.48
2023-03-23T02:31:59.429Z,1.00
2023-03-23T02:36:28.002Z,1.27
2023-03-23T02:40:34.515Z,1.30
2023-03-23T02:44:39.950Z,1.30
2023-03-23T02:48:45.165Z,1.48
2023-03-23T02:52:49.553Z,1.25
2023-03-23T02:56:52.943Z,1.02
2023-03-23T03:01:00.155Z,1.02
2023-03-23T03:05:08.076Z,1.23
2023-03-23T03:09:27.507Z,1.25
2023-03-23T03:14:19.944Z,0.90
2023-03-23T03:18:39.286Z,0.90
2023-03-23T03:22:44.370Z,0.90
2023-03-23T03:26:49.537Z,1.10
2023-03-23T03:31:01.736Z,1.27
2023-03-23T03:35:04.745Z,1.08
2023-03-23T03:39:09.477Z,1.00
2023-03-23T03:43:12.251Z,1.00
2023-03-23T03:47:14.121Z,0.80
2023-03-23T03:51:15.778Z,0.85
2023-03-23T03:55:22.264Z,0.90
2023-03-23T03:59:27.232Z,1.02
2023-03-23T04:03:47.182Z,1.00
2023-03-23T04:08:09.543Z,1.20
2023-03-23T04:12:11.704Z,1.20
2023-03-23T04:16:30.716Z,1.30
2023-03-23T04:20:36.004Z,1.15
2023-03-23T04:24:57.057Z,1.20
2023-03-23T04:29:00.297Z,1.50
2023-03-23T04:33:57.495Z,0.95
2023-03-23T04:37:57.990Z,1.10
2023-03-23T04:42:02.557Z,1.20
2023-03-23T04:46:29.992Z,1.23
2023-03-23T04:50:35.763Z,1.50
2023-03-23T04:54:48.987Z,1.30
2023-03-23T04:58:51.561Z,1.10
2023-03-23T05:03:09.118Z,1.30
2023-03-23T05:07:12.662Z,1.13
2023-03-23T05:11:22.041Z,1.00
2023-03-23T05:15:25.078Z,0.95
2023-03-23T05:19:27.540Z,0.80
2023-03-23T05:23:34.932Z,0.90
2023-03-23T05:27:50.845Z,0.90
2023-03-23T05:32:00.826Z,1.00
2023-03-23T05:36:05.563Z,1.30
2023-03-23T05:40:17.726Z,1.00
2023-03-23T05:44:26.260Z,1.38
2023-03-23T05:48:31.607Z,1.00
2023-03-23T05:52:36.579Z,1.10
2023-03-23T05:56:42.079Z,1.13
2023-03-23T06:00:57.241Z,1.40
2023-03-23T06:05:04.223Z,1.05
2023-03-23T06:09:11.211Z,1.10
2023-03-23T06:13:37.840Z,1.13
2023-03-23T06:17:44.719Z,1.13
2023-03-23T06:21:48.679Z,1.55
2023-03-23T06:26:30.541Z,1.38
2023-03-23T06:30:37.644Z,1.33
2023-03-23T06:34:41.738Z,1.08
2023-03-23T06:38:56.539Z,1.52
2023-03-23T06:43:08.562Z,1.30
2023-03-23T06:47:33.796Z,1.05
2023-03-23T06:51:38.191Z,1.10
2023-03-23T06:55:40.740Z,1.15
2023-03-23T06:59:43.757Z,1.13
2023-03-23T07:03:47.131Z,1.42
2023-03-23T07:07:54.820Z,1.15
2023-03-23T07:12:10.548Z,1.42
2023-03-23T07:16:20.261Z,1.10
2023-03-23T07:20:23.998Z,1.50
2023-03-23T07:24:25.953Z,1.30
2023-03-23T07:28:41.423Z,1.30
2023-03-23T07:33:14.799Z,1.50
2023-03-23T07:37:18.538Z,1.27
2023-03-23T07:41:24.611Z,1.45
2023-03-23T07:45:31.080Z,1.40
2023-03-23T07:49:35.498Z,1.45
2023-03-23T07:53:52.518Z,1.20
2023-03-23T07:58:20.246Z,1.00
2023-03-23T08:02:29.237Z,1.30
2023-03-23T08:06:58.126Z,1.10
2023-03-23T08:11:16.521Z,1.00
2023-03-23T08:15:32.237Z,1.30
2023-03-23T08:19:47.562Z,1.00
2023-03-23T08:29:00.246Z,0.98
2023-03-23T08:33:27.210Z,0.95
2023-03-23T08:37:53.742Z,0.90
2023-03-23T08:42:15.303Z,1.10
2023-03-23T08:46:35.800Z,1.25
2023-03-23T08:50:56.627Z,0.90
2023-03-23T08:59:49.504Z,1.00
2023-03-23T09:03:56.518Z,1.00
2023-03-23T09:08:19.452Z,1.00
2023-03-23T09:12:23.518Z,1.25
2023-03-23T09:16:27.791Z,1.35
2023-03-23T09:20:30.482Z,0.80
2023-03-23T09:24:34.519Z,0.80
2023-03-23T09:28:37.736Z,1.08
2023-03-23T09:32:41.535Z,1.10
2023-03-23T09:36:45.682Z,1.05
2023-03-23T09:41:06.540Z,1.15
2023-03-23T09:45:23.359Z,1.05
2023-03-23T09:49:30.866Z,0.90
2023-03-23T09:53:51.039Z,1.05
2023-03-23T09:58:00.108Z,1.30
2023-03-23T10:02:16.526Z,1.15
2023-03-23T10:06:23.302Z,0.80
2023-03-23T10:10:44.523Z,0.95
2023-03-23T10:15:10.546Z,0.88
2023-03-23T10:19:31.778Z,1.02
2023-03-23T10:24:02.533Z,0.85
2023-03-23T10:28:11.825Z,0.80
2023-03-23T10:32:19.609Z,1.00
2023-03-23T10:36:33.222Z,0.88
2023-03-23T10:40:39.056Z,0.55
2023-03-23T10:44:42.631Z,1.00
2023-03-23T10:48:45.129Z,0.93
2023-03-23T10:52:53.673Z,0.90
2023-03-23T10:56:59.679Z,1.65
2023-03-23T11:01:06.520Z,0.60
2023-03-23T11:05:20.231Z,0.73
2023-03-23T11:09:37.827Z,0.80
2023-03-23T11:13:47.130Z,0.82
2023-03-23T11:18:01.577Z,0.80
2023-03-23T11:22:07.507Z,0.80
2023-03-23T11:26:22.295Z,0.60
2023-03-23T11:30:28.702Z,1.17
2023-03-23T11:34:36.491Z,0.93
2023-03-23T11:38:39.032Z,1.05
2023-03-23T11:42:47.801Z,1.00
2023-03-23T11:47:17.532Z,0.70
2023-03-23T11:51:31.268Z,0.90
2023-03-23T11:55:57.496Z,0.93
2023-03-23T12:00:02.100Z,0.77
2023-03-23T12:05:03.361Z,0.80
2023-03-23T12:09:38.520Z,0.80
2023-03-23T12:14:09.717Z,0.80
2023-03-23T12:18:26.849Z,0.90
2023-03-23T12:22:50.134Z,0.70
2023-03-23T12:27:20.511Z,1.05
2023-03-23T12:31:36.511Z,0.75
2023-03-23T12:35:57.341Z,0.70
2023-03-23T12:40:46.754Z,0.47
2023-03-23T12:44:54.086Z,0.80
2023-03-23T12:49:06.689Z,0.90
2023-03-23T12:53:18.515Z,0.80
2023-03-23T12:57:28.523Z,0.75
2023-03-23T13:05:42.113Z,0.60
2023-03-23T13:09:53.401Z,0.55
2023-03-23T13:14:10.915Z,0.80
2023-03-23T13:18:45.814Z,0.75
2023-03-23T13:22:54.512Z,0.75
2023-03-23T13:27:02.268Z,1.33
2023-03-23T13:31:28.914Z,0.80
2023-03-23T13:35:39.508Z,1.15
2023-03-23T13:39:57.658Z,0.80
2023-03-23T13:44:18.358Z,0.70
2023-03-23T13:48:26.156Z,0.80
2023-03-23T13:52:46.789Z,0.68
2023-03-23T13:57:08.264Z,0.70
2023-03-23T14:01:18.496Z,0.60
2023-03-23T14:05:21.473Z,0.60
2023-03-23T14:09:36.032Z,0.50
2023-03-23T14:13:45.020Z,0.40
2023-03-23T14:17:46.891Z,0.60
2023-03-23T14:22:00.498Z,0.40
2023-03-23T14:26:13.325Z,0.57
2023-03-23T14:30:25.488Z,0.68
2023-03-23T14:34:32.722Z,0.52
2023-03-23T14:38:36.406Z,0.50
2023-03-23T14:42:39.046Z,0.75
2023-03-23T14:46:43.545Z,0.77
2023-03-23T14:50:53.240Z,0.60
2023-03-23T14:54:56.501Z,0.63
2023-03-23T14:59:05.149Z,0.55
2023-03-23T15:03:14.146Z,0.80
2023-03-23T15:07:19.216Z,0.70
2023-03-23T15:11:31.506Z,0.50
2023-03-23T15:15:36.174Z,0.60
2023-03-23T15:19:44.556Z,0.88
2023-03-23T15:23:46.372Z,1.00
2023-03-23T15:27:57.363Z,0.80
2023-03-23T15:32:00.601Z,0.80
2023-03-23T15:36:16.646Z,0.88
2023-03-23T15:40:25.496Z,1.13
2023-03-23T15:44:33.579Z,0.98
2023-03-23T15:49:12.484Z,0.80
2023-03-23T15:53:26.845Z,0.80
2023-03-23T15:57:30.779Z,0.73
2023-03-23T16:01:33.008Z,0.63
2023-03-23T16:05:37.204Z,0.83
2023-03-23T16:09:45.044Z,0.82
2023-03-23T16:13:47.246Z,0.90
2023-03-23T16:17:51.531Z,0.65
2023-03-23T16:21:53.479Z,0.70
2023-03-23T16:25:56.557Z,0.90
2023-03-23T16:30:05.132Z,0.82
2023-03-23T16:34:07.481Z,0.77
2023-03-23T16:38:16.073Z,0.70
2023-03-23T16:42:18.514Z,0.98
2023-03-23T16:46:20.490Z,0.93
2023-03-23T16:50:22.481Z,0.70
2023-03-23T16:54:25.518Z,0.80
2023-03-23T16:58:31.744Z,1.25
2023-03-23T17:02:36.589Z,0.90
2023-03-23T17:06:42.856Z,0.88
2023-03-23T17:10:48.110Z,1.13
2023-03-23T17:14:52.539Z,0.90
2023-03-23T17:18:54.291Z,1.10
2023-03-23T17:22:56.031Z,0.90
2023-03-23T17:26:57.738Z,0.90
2023-03-23T17:30:59.611Z,1.20
2023-03-23T17:35:02.720Z,1.33
2023-03-23T17:39:04.617Z,0.98
2023-03-23T17:43:08.496Z,2.20
2023-03-23T17:47:11.685Z,1.52
2023-03-23T17:51:13.782Z,1.38
2023-03-23T17:55:16.138Z,0.90
2023-03-23T17:59:18.137Z,1.42
2023-03-23T18:03:20.115Z,1.10
2023-03-23T18:07:23.670Z,1.20
2023-03-23T18:11:25.437Z,1.60
2023-03-23T18:15:29.424Z,1.52
2023-03-23T18:19:33.496Z,1.30
2023-03-23T18:23:46.176Z,1.20
2023-03-23T18:27:51.659Z,1.05
2023-03-23T18:31:53.353Z,1.33
2023-03-23T18:35:59.580Z,1.30
2023-03-23T18:40:02.317Z,1.15
2023-03-23T18:44:04.517Z,1.50
2023-03-23T18:48:09.646Z,1.95
2023-03-23T18:52:11.511Z,1.60
2023-03-23T18:56:16.717Z,1.50
2023-03-23T19:00:18.919Z,2.10
2023-03-23T19:04:22.636Z,2.35
2023-03-23T19:08:25.075Z,2.08
2023-03-23T19:12:27.146Z,2.10
2023-03-23T19:16:31.294Z,2.27
2023-03-23T19:21:06.145Z,2.30
2023-03-23T19:24:57.337Z,2.30
2023-03-23T19:33:04.666Z,2.60
2023-03-23T19:37:11.020Z,2.55
2023-03-23T19:41:13.499Z,1.85
2023-03-23T19:45:17.604Z,1.90
2023-03-23T19:49:19.867Z,2.22
2023-03-23T19:53:23.076Z,2.30
2023-03-23T19:57:25.478Z,2.30
2023-03-23T20:01:28.288Z,2.13
2023-03-23T20:05:35.281Z,2.22
2023-03-23T20:09:39.086Z,2.50
2023-03-23T20:13:41.599Z,2.90
2023-03-23T20:17:44.144Z,2.90
2023-03-23T20:21:45.994Z,2.97
2023-03-23T20:25:49.731Z,3.33
2023-03-23T20:29:53.752Z,3.00
2023-03-23T20:34:02.060Z,3.13
2023-03-23T20:38:04.186Z,2.50
2023-03-23T20:42:11.602Z,2.65
2023-03-23T20:46:13.616Z,2.83
2023-03-23T20:50:15.335Z,3.00
2023-03-23T20:54:19.945Z,3.10
2023-03-23T20:58:22.540Z,2.53
2023-03-23T21:02:26.521Z,2.75
2023-03-23T21:06:29.166Z,2.85
2023-03-23T21:10:31.145Z,3.00
2023-03-23T21:14:33.949Z,2.23
2023-03-23T21:18:35.628Z,2.35
2023-03-23T21:22:37.493Z,2.30
2023-03-23T21:26:40.093Z,2.33
2023-03-23T21:30:45.801Z,2.13
2023-03-23T21:34:48.508Z,2.55
2023-03-23T21:38:50.734Z,2.47
2023-03-23T21:42:53.348Z,2.63
2023-03-23T21:46:55.085Z,2.30
2023-03-23T21:50:57.023Z,2.15
2023-03-23T21:54:59.719Z,2.50
2023-03-23T21:59:01.863Z,2.72
2023-03-23T22:03:04.898Z,2.63
2023-03-23T22:07:07.492Z,2.35
2023-03-23T22:11:23.223Z,2.28
2023-03-23T22:15:28.016Z,2.40
2023-03-23T22:19:29.786Z,2.42
2023-03-23T22:23:31.595Z,2.30
2023-03-23T22:27:33.252Z,2.42
2023-03-23T22:31:35.460Z,2.40
2023-03-23T22:35:37.656Z,2.20
2023-03-23T22:39:39.373Z,2.25
2023-03-23T22:43:41.063Z,2.13
2023-03-23T22:47:43.073Z,1.92
2023-03-23T22:51:45.068Z,3.40
2023-03-23T22:55:49.850Z,2.50
2023-03-23T22:59:51.562Z,1.98
2023-03-23T23:03:53.313Z,1.90
2023-03-23T23:07:55.305Z,2.60
2023-03-23T23:11:56.992Z,2.40
2023-03-23T23:16:00.978Z,2.97
2023-03-23T23:20:05.884Z,2.00
2023-03-23T23:24:08.055Z,2.35
2023-03-23T23:28:09.698Z,2.00
2023-03-23T23:32:11.360Z,2.38
2023-03-23T23:36:14.628Z,2.63
2023-03-23T23:40:17.771Z,2.88
2023-03-23T23:44:19.534Z,2.92
2023-03-23T23:48:21.777Z,2.80
2023-03-23T23:52:23.447Z,2.65
2023-03-23T23:56:25.767Z,2.45
